createdAt,value
2018-05-24T00:00:40.045Z,50.10
2018-05-24T00:01:40.035Z,49.40
2018-05-24T00:02:40.025Z,49.30
2018-05-24T00:03:40.012Z,50.80
2018-05-24T00:04:40.004Z,50.20
2018-05-24T00:05:39.991Z,50.40
2018-05-24T00:06:39.980Z,50.90
2018-05-24T00:07:39.967Z,50.30
2018-05-24T00:08:39.957Z,51.90
2018-05-24T00:09:39.946Z,51.90
2018-05-24T00:10:39.936Z,50.80
2018-05-24T00:11:39.925Z,52.20
2018-05-24T00:12:39.916Z,50.20
2018-05-24T00:13:39.903Z,50.80
2018-05-24T00:14:39.891Z,50.00
2018-05-24T00:15:39.880Z,51.40
2018-05-24T00:16:39.869Z,52.40
2018-05-24T00:17:39.858Z,52.00
2018-05-24T00:18:39.848Z,52.10
2018-05-24T00:19:39.835Z,50.10
2018-05-24T00:20:39.825Z,49.90
2018-05-24T00:21:39.815Z,51.30
2018-05-24T00:22:39.804Z,51.40
2018-05-24T00:23:39.792Z,52.50
2018-05-24T00:24:39.782Z,51.80
2018-05-24T00:25:39.769Z,52.50
2018-05-24T00:26:39.761Z,52.30
2018-05-24T00:27:39.749Z,51.60
2018-05-24T00:28:39.738Z,51.00
2018-05-24T00:29:39.776Z,51.10
2018-05-24T00:30:39.715Z,48.30
2018-05-24T00:31:39.705Z,45.80
2018-05-24T00:32:39.692Z,45.10
2018-05-24T00:33:39.684Z,44.40
2018-05-24T00:34:39.671Z,43.30
2018-05-24T00:35:39.659Z,44.60
2018-05-24T00:36:39.650Z,42.50
2018-05-24T00:37:39.637Z,39.20
2018-05-24T00:38:39.628Z,38.40
2018-05-24T00:39:39.615Z,38.10
2018-05-24T00:40:39.605Z,36.50
2018-05-24T00:41:39.594Z,36.90
2018-05-24T00:42:39.582Z,38.60
2018-05-24T00:43:39.571Z,37.10
2018-05-24T00:44:39.560Z,38.50
2018-05-24T00:45:39.550Z,37.70
2018-05-24T00:46:39.539Z,38.00
2018-05-24T00:47:39.527Z,36.90
2018-05-24T00:48:39.516Z,36.10
2018-05-24T00:49:39.504Z,33.30
2018-05-24T00:50:39.538Z,34.90
2018-05-24T00:51:39.484Z,33.80
2018-05-24T00:52:39.473Z,34.50
2018-05-24T00:53:39.460Z,32.00
2018-05-24T00:54:39.523Z,34.40
2018-05-24T00:55:39.441Z,34.40
2018-05-24T00:56:39.428Z,34.80
2018-05-24T00:57:39.417Z,36.00
2018-05-24T00:58:39.407Z,36.00
2018-05-24T00:59:39.600Z,36.50
2018-05-24T01:00:39.383Z,36.10
2018-05-24T01:01:39.372Z,34.30
2018-05-24T01:02:39.361Z,31.90
2018-05-24T01:03:39.351Z,31.40
2018-05-24T01:04:39.338Z,32.40
2018-05-24T01:05:39.428Z,35.20
2018-05-24T01:06:39.319Z,31.80
2018-05-24T01:07:39.309Z,33.50
2018-05-24T01:08:39.297Z,32.50
2018-05-24T01:09:39.284Z,31.30
2018-05-24T01:10:39.274Z,28.60
2018-05-24T01:11:39.264Z,27.80
2018-05-24T01:12:39.252Z,29.00
2018-05-24T01:13:39.242Z,28.70
2018-05-24T01:14:39.232Z,28.30
2018-05-24T01:15:39.220Z,26.80
2018-05-24T01:16:39.209Z,26.60
2018-05-24T01:17:39.199Z,27.40
2018-05-24T01:18:39.187Z,25.60
2018-05-24T01:19:39.177Z,26.00
2018-05-24T01:20:39.170Z,28.10
2018-05-24T01:21:39.156Z,27.30
2018-05-24T01:22:39.146Z,27.50
2018-05-24T01:23:39.137Z,28.20
2018-05-24T01:24:39.124Z,27.10
2018-05-24T01:25:39.116Z,25.60
2018-05-24T01:26:39.102Z,25.90
2018-05-24T01:27:39.090Z,25.20
2018-05-24T01:28:39.080Z,25.30
2018-05-24T01:29:39.269Z,26.00
2018-05-24T01:30:39.059Z,26.20
2018-05-24T01:31:39.050Z,25.60
2018-05-24T01:32:39.036Z,25.50
2018-05-24T01:33:39.027Z,26.10
2018-05-24T01:34:39.020Z,25.60
2018-05-24T01:35:39.006Z,23.80
2018-05-24T01:36:38.994Z,25.10
2018-05-24T01:37:38.984Z,25.50
2018-05-24T01:38:38.973Z,25.60
2018-05-24T01:39:38.962Z,26.10
2018-05-24T01:40:38.951Z,25.10
2018-05-24T01:41:38.993Z,26.10
2018-05-24T01:42:38.930Z,25.20
2018-05-24T01:43:38.922Z,25.80
2018-05-24T01:44:38.911Z,25.70
2018-05-24T01:45:38.899Z,26.50
2018-05-24T01:46:38.888Z,25.90
2018-05-24T01:47:38.877Z,27.10
2018-05-24T01:48:38.867Z,25.10
2018-05-24T01:49:38.858Z,26.70
2018-05-24T01:50:38.847Z,26.00
2018-05-24T01:51:38.836Z,27.20
2018-05-24T01:52:38.827Z,26.90
2018-05-24T01:53:38.815Z,27.20
2018-05-24T01:54:38.805Z,26.00
2018-05-24T01:55:38.792Z,25.70
2018-05-24T01:56:38.783Z,26.40
2018-05-24T01:57:38.773Z,25.50
2018-05-24T01:58:38.762Z,22.10
2018-05-24T01:59:38.751Z,22.00
2018-05-24T02:00:38.739Z,22.60
2018-05-24T02:01:38.734Z,22.20
2018-05-24T02:02:38.720Z,21.70
2018-05-24T02:03:38.708Z,20.60
2018-05-24T02:04:38.696Z,20.90
2018-05-24T02:05:38.687Z,20.10
2018-05-24T02:06:38.676Z,20.20
2018-05-24T02:07:38.664Z,20.40
2018-05-24T02:08:38.655Z,19.60
2018-05-24T02:09:38.644Z,20.00
2018-05-24T02:10:38.634Z,20.30
2018-05-24T02:11:38.822Z,21.00
2018-05-24T02:12:38.611Z,20.90
2018-05-24T02:13:38.600Z,21.70
2018-05-24T02:14:38.591Z,20.70
2018-05-24T02:15:38.580Z,20.80
2018-05-24T02:16:38.568Z,22.50
2018-05-24T02:17:38.557Z,21.60
2018-05-24T02:18:38.555Z,21.40
2018-05-24T02:19:38.541Z,19.50
2018-05-24T02:20:38.527Z,18.50
2018-05-24T02:21:38.515Z,19.10
2018-05-24T02:22:38.504Z,17.90
2018-05-24T02:23:38.542Z,18.20
2018-05-24T02:24:38.483Z,18.00
2018-05-24T02:25:38.472Z,17.70
2018-05-24T02:26:38.461Z,18.20
2018-05-24T02:27:38.450Z,17.50
2018-05-24T02:28:38.439Z,17.40
2018-05-24T02:29:38.631Z,18.30
2018-05-24T02:30:38.418Z,18.50
2018-05-24T02:31:38.406Z,18.00
2018-05-24T02:32:38.397Z,17.70
2018-05-24T02:33:38.385Z,18.80
2018-05-24T02:34:38.383Z,18.00
2018-05-24T02:35:38.364Z,18.20
2018-05-24T02:36:38.355Z,20.30
2018-05-24T02:37:38.342Z,19.20
2018-05-24T02:38:38.334Z,18.40
2018-05-24T02:39:38.320Z,20.00
2018-05-24T02:40:38.309Z,19.20
2018-05-24T02:41:38.349Z,19.10
2018-05-24T02:42:38.288Z,20.10
2018-05-24T02:43:38.278Z,20.10
2018-05-24T02:44:38.267Z,20.10
2018-05-24T02:45:38.306Z,21.70
2018-05-24T02:46:38.245Z,20.50
2018-05-24T02:47:38.283Z,20.70
2018-05-24T02:48:38.226Z,21.00
2018-05-24T02:49:38.213Z,21.00
2018-05-24T02:50:38.209Z,22.10
2018-05-24T02:51:38.191Z,21.80
2018-05-24T02:52:38.180Z,21.90
2018-05-24T02:53:38.172Z,22.10
2018-05-24T02:54:38.157Z,22.80
2018-05-24T02:55:38.146Z,22.40
2018-05-24T02:56:38.136Z,21.90
2018-05-24T02:57:38.127Z,21.90
2018-05-24T02:58:38.114Z,22.80
2018-05-24T02:59:38.104Z,23.70
2018-05-24T03:00:38.092Z,22.60
2018-05-24T03:01:38.100Z,23.40
2018-05-24T03:02:38.069Z,24.30
2018-05-24T03:03:38.057Z,23.80
2018-05-24T03:04:38.048Z,24.10
2018-05-24T03:05:38.035Z,24.40
2018-05-24T03:06:38.027Z,23.10
2018-05-24T03:07:38.013Z,24.70
2018-05-24T03:08:38.003Z,23.70
2018-05-24T03:09:37.993Z,25.50
2018-05-24T03:10:37.984Z,25.10
2018-05-24T03:11:37.970Z,26.60
2018-05-24T03:12:37.958Z,27.30
2018-05-24T03:13:37.947Z,27.20
2018-05-24T03:14:37.937Z,28.50
2018-05-24T03:15:37.924Z,29.50
2018-05-24T03:16:37.917Z,29.60
2018-05-24T03:17:37.903Z,30.10
2018-05-24T03:18:37.893Z,28.60
2018-05-24T03:19:37.879Z,29.80
2018-05-24T03:20:37.869Z,29.40
2018-05-24T03:21:37.859Z,28.90
2018-05-24T03:22:37.849Z,30.90
2018-05-24T03:23:37.835Z,30.40
2018-05-24T03:24:37.824Z,30.50
2018-05-24T03:25:37.815Z,29.90
2018-05-24T03:26:37.802Z,30.00
2018-05-24T03:27:37.791Z,29.10
2018-05-24T03:28:37.781Z,29.50
2018-05-24T03:29:37.820Z,29.20
2018-05-24T03:30:37.759Z,29.10
2018-05-24T03:31:37.747Z,29.40
2018-05-24T03:32:37.736Z,29.70
2018-05-24T03:33:37.726Z,29.00
2018-05-24T03:34:37.714Z,28.70
2018-05-24T03:35:37.701Z,28.90
2018-05-24T03:36:37.690Z,28.50
2018-05-24T03:37:37.679Z,27.60
2018-05-24T03:38:37.668Z,29.90
2018-05-24T03:39:37.658Z,29.50
2018-05-24T03:40:37.645Z,28.70
2018-05-24T03:41:37.636Z,28.90
2018-05-24T03:42:37.624Z,29.60
2018-05-24T03:43:37.613Z,28.30
2018-05-24T03:44:37.601Z,28.40
2018-05-24T03:45:37.590Z,29.50
2018-05-24T03:46:37.580Z,27.80
2018-05-24T03:47:37.778Z,30.20
2018-05-24T03:48:37.556Z,29.20
2018-05-24T03:49:37.545Z,28.60
2018-05-24T03:50:37.534Z,29.00
2018-05-24T03:51:37.522Z,29.60
2018-05-24T03:52:37.512Z,28.80
2018-05-24T03:53:37.550Z,28.70
2018-05-24T03:54:37.491Z,28.30
2018-05-24T03:55:37.478Z,28.50
2018-05-24T03:56:37.470Z,29.10
2018-05-24T03:57:37.462Z,29.70
2018-05-24T03:58:37.447Z,30.10
2018-05-24T03:59:37.483Z,29.20
2018-05-24T04:00:37.422Z,30.50
2018-05-24T04:01:37.413Z,31.00
2018-05-24T04:02:37.400Z,31.20
2018-05-24T04:03:37.388Z,30.20
2018-05-24T04:04:37.378Z,31.00
2018-05-24T04:05:37.369Z,30.90
2018-05-24T04:06:37.357Z,31.80
2018-05-24T04:07:37.343Z,32.90
2018-05-24T04:08:37.334Z,31.50
2018-05-24T04:09:37.323Z,31.60
2018-05-24T04:10:37.316Z,32.30
2018-05-24T04:11:37.499Z,32.60
2018-05-24T04:12:37.294Z,33.00
2018-05-24T04:13:37.276Z,32.80
2018-05-24T04:14:37.266Z,33.00
2018-05-24T04:15:37.257Z,33.20
2018-05-24T04:16:37.245Z,33.30
2018-05-24T04:17:37.231Z,32.40
2018-05-24T04:18:37.220Z,33.60
2018-05-24T04:19:37.210Z,34.10
2018-05-24T04:20:37.199Z,34.80
2018-05-24T04:21:37.187Z,34.20
2018-05-24T04:22:37.179Z,33.50
2018-05-24T04:23:37.366Z,34.30
2018-05-24T04:24:37.156Z,34.40
2018-05-24T04:25:37.147Z,34.90
2018-05-24T04:26:37.132Z,34.30
2018-05-24T04:27:37.118Z,34.30
2018-05-24T04:28:37.117Z,34.90
2018-05-24T04:29:37.297Z,36.00
2018-05-24T04:30:37.088Z,34.90
2018-05-24T04:31:37.075Z,34.60
2018-05-24T04:32:37.063Z,34.50
2018-05-24T04:33:37.051Z,34.30
2018-05-24T04:34:37.040Z,34.30
2018-05-24T04:35:37.030Z,36.00
2018-05-24T04:36:37.019Z,34.50
2018-05-24T04:37:37.007Z,37.00
2018-05-24T04:38:36.996Z,34.50
2018-05-24T04:39:36.983Z,35.10
2018-05-24T04:40:36.972Z,35.50
2018-05-24T04:41:36.962Z,34.70
2018-05-24T04:42:36.951Z,36.70
2018-05-24T04:43:36.938Z,35.80
2018-05-24T04:44:36.927Z,36.40
2018-05-24T04:45:37.006Z,36.80
2018-05-24T04:46:36.906Z,37.20
2018-05-24T04:47:36.892Z,35.40
2018-05-24T04:48:36.883Z,35.20
2018-05-24T04:49:36.871Z,35.80
2018-05-24T04:50:36.861Z,36.70
2018-05-24T04:51:36.848Z,37.20
2018-05-24T04:52:36.838Z,36.70
2018-05-24T04:53:37.025Z,38.10
2018-05-24T04:54:36.817Z,37.80
2018-05-24T04:55:36.801Z,36.60
2018-05-24T04:56:36.790Z,37.50
2018-05-24T04:57:36.782Z,36.30
2018-05-24T04:58:36.767Z,37.30
2018-05-24T04:59:36.756Z,36.80
2018-05-24T05:00:36.745Z,35.80
2018-05-24T05:01:36.788Z,35.70
2018-05-24T05:02:36.722Z,36.70
2018-05-24T05:03:36.715Z,37.90
2018-05-24T05:04:36.699Z,35.60
2018-05-24T05:05:36.892Z,36.80
2018-05-24T05:06:36.678Z,37.00
2018-05-24T05:07:36.665Z,36.10
2018-05-24T05:08:36.654Z,35.80
2018-05-24T05:09:36.644Z,37.00
2018-05-24T05:10:36.631Z,37.00
2018-05-24T05:11:36.820Z,35.90
2018-05-24T05:12:36.668Z,36.60
2018-05-24T05:13:36.597Z,37.10
2018-05-24T05:14:36.677Z,37.10
2018-05-24T05:15:36.573Z,37.00
2018-05-24T05:16:36.563Z,37.70
2018-05-24T05:17:36.551Z,36.50
2018-05-24T05:18:36.540Z,37.90
2018-05-24T05:19:36.631Z,35.80
2018-05-24T05:20:36.516Z,36.00
2018-05-24T05:21:36.506Z,36.90
2018-05-24T05:22:36.495Z,37.40
2018-05-24T05:23:36.484Z,37.00
2018-05-24T05:24:36.470Z,37.20
2018-05-24T05:25:36.460Z,36.30
2018-05-24T05:26:36.449Z,37.90
2018-05-24T05:27:36.436Z,38.00
2018-05-24T05:28:36.425Z,36.00
2018-05-24T05:29:36.414Z,36.60
2018-05-24T05:30:36.461Z,37.70
2018-05-24T05:31:36.392Z,37.60
2018-05-24T05:32:36.381Z,36.40
2018-05-24T05:33:36.367Z,37.30
2018-05-24T05:34:36.357Z,36.60
2018-05-24T05:35:36.346Z,36.40
2018-05-24T05:36:36.334Z,36.20
2018-05-24T05:37:36.322Z,37.40
2018-05-24T05:38:36.311Z,37.50
2018-05-24T05:39:36.301Z,38.10
2018-05-24T05:40:36.288Z,36.20
2018-05-24T05:41:36.280Z,36.00
2018-05-24T05:42:36.266Z,36.70
2018-05-24T05:43:36.253Z,35.70
2018-05-24T05:44:36.241Z,35.30
2018-05-24T05:45:36.231Z,35.50
2018-05-24T05:46:36.219Z,35.60
2018-05-24T05:47:36.210Z,35.30
2018-05-24T05:48:36.196Z,34.90
2018-05-24T05:49:36.184Z,34.80
2018-05-24T05:50:36.173Z,35.50
2018-05-24T05:51:36.162Z,36.10
2018-05-24T05:52:36.155Z,35.20
2018-05-24T05:53:36.339Z,36.00
2018-05-24T05:54:36.130Z,34.80
2018-05-24T05:55:36.115Z,35.90
2018-05-24T05:56:36.103Z,35.40
2018-05-24T05:57:36.092Z,35.20
2018-05-24T05:58:36.082Z,34.80
2018-05-24T05:59:36.070Z,35.40
2018-05-24T06:00:36.057Z,35.50
2018-05-24T06:01:36.095Z,35.90
2018-05-24T06:02:36.035Z,36.70
2018-05-24T06:03:36.027Z,35.20
2018-05-24T06:04:36.011Z,34.80
2018-05-24T06:05:35.999Z,34.30
2018-05-24T06:06:35.988Z,34.10
2018-05-24T06:07:35.976Z,34.30
2018-05-24T06:08:35.966Z,33.50
2018-05-24T06:09:36.027Z,34.20
2018-05-24T06:10:35.944Z,34.50
2018-05-24T06:11:35.931Z,34.30
2018-05-24T06:12:35.919Z,33.90
2018-05-24T06:13:35.909Z,35.40
2018-05-24T06:14:35.896Z,33.80
2018-05-24T06:15:35.889Z,34.10
2018-05-24T06:16:35.875Z,35.10
2018-05-24T06:17:35.861Z,35.70
2018-05-24T06:18:35.850Z,34.80
2018-05-24T06:19:35.839Z,34.50
2018-05-24T06:20:35.831Z,34.00
2018-05-24T06:21:35.901Z,35.00
2018-05-24T06:22:35.805Z,33.50
2018-05-24T06:23:35.992Z,34.70
2018-05-24T06:24:35.780Z,35.50
2018-05-24T06:25:35.769Z,34.30
2018-05-24T06:26:35.758Z,34.90
2018-05-24T06:27:35.745Z,36.20
2018-05-24T06:28:35.772Z,36.10
2018-05-24T06:29:35.924Z,35.00
2018-05-24T06:30:35.711Z,35.10
2018-05-24T06:31:35.699Z,35.80
2018-05-24T06:32:35.687Z,34.80
2018-05-24T06:33:35.677Z,34.30
2018-05-24T06:34:35.666Z,35.40
2018-05-24T06:35:35.652Z,34.60
2018-05-24T06:36:35.643Z,34.80
2018-05-24T06:37:35.631Z,35.90
2018-05-24T06:38:35.618Z,35.00
2018-05-24T06:39:35.606Z,36.20
2018-05-24T06:40:35.637Z,35.40
2018-05-24T06:41:35.784Z,35.50
2018-05-24T06:42:35.572Z,36.30
2018-05-24T06:43:35.561Z,35.90
2018-05-24T06:44:35.548Z,35.60
2018-05-24T06:45:35.538Z,37.10
2018-05-24T06:46:35.582Z,36.20
2018-05-24T06:47:35.514Z,37.00
2018-05-24T06:48:35.503Z,37.10
2018-05-24T06:49:35.490Z,36.40
2018-05-24T06:50:35.478Z,37.90
2018-05-24T06:51:35.466Z,36.50
2018-05-24T06:52:35.454Z,37.30
2018-05-24T06:53:35.456Z,36.10
2018-05-24T06:54:35.432Z,35.00
2018-05-24T06:55:35.424Z,35.00
2018-05-24T06:56:35.409Z,35.60
2018-05-24T06:57:35.398Z,36.90
2018-05-24T06:58:35.384Z,36.70
2018-05-24T06:59:35.372Z,36.60
2018-05-24T07:00:35.361Z,37.70
2018-05-24T07:01:35.351Z,36.10
2018-05-24T07:02:35.340Z,36.80
2018-05-24T07:03:35.327Z,37.60
2018-05-24T07:04:35.318Z,37.50
2018-05-24T07:05:35.306Z,37.70
2018-05-24T07:06:35.291Z,37.50
2018-05-24T07:07:35.280Z,37.70
2018-05-24T07:08:35.268Z,36.50
2018-05-24T07:09:35.255Z,37.40
2018-05-24T07:10:35.244Z,36.80
2018-05-24T07:11:35.432Z,37.00
2018-05-24T07:12:35.220Z,36.50
2018-05-24T07:13:35.208Z,37.30
2018-05-24T07:14:35.198Z,37.90
2018-05-24T07:15:35.186Z,37.30
2018-05-24T07:16:35.173Z,37.90
2018-05-24T07:17:35.161Z,37.90
2018-05-24T07:18:35.240Z,37.80
2018-05-24T07:19:35.139Z,38.50
2018-05-24T07:20:35.128Z,41.00
2018-05-24T07:21:35.114Z,40.40
2018-05-24T07:22:35.103Z,38.30
2018-05-24T07:23:35.092Z,37.90
2018-05-24T07:24:35.121Z,37.70
2018-05-24T07:25:35.069Z,38.50
2018-05-24T07:26:35.056Z,37.70
2018-05-24T07:27:35.044Z,38.90
2018-05-24T07:28:35.032Z,39.50
2018-05-24T07:29:35.026Z,39.10
2018-05-24T07:30:35.009Z,38.90
2018-05-24T07:31:34.998Z,39.30
2018-05-24T07:32:34.986Z,39.70
2018-05-24T07:33:34.974Z,39.50
2018-05-24T07:34:34.962Z,38.60
2018-05-24T07:35:34.952Z,39.90
2018-05-24T07:36:34.939Z,39.40
2018-05-24T07:37:34.926Z,38.00
2018-05-24T07:38:34.918Z,38.90
2018-05-24T07:39:34.929Z,38.10
2018-05-24T07:40:34.893Z,37.50
2018-05-24T07:41:35.083Z,38.00
2018-05-24T07:42:34.870Z,39.40
2018-05-24T07:43:34.856Z,39.30
2018-05-24T07:44:34.880Z,39.20
2018-05-24T07:45:34.832Z,38.90
2018-05-24T07:46:34.825Z,39.80
2018-05-24T07:47:34.807Z,37.70
2018-05-24T07:48:34.802Z,38.30
2018-05-24T07:49:34.785Z,37.90
2018-05-24T07:50:34.789Z,38.30
2018-05-24T07:51:34.759Z,37.00
2018-05-24T07:52:34.748Z,37.60
2018-05-24T07:53:34.746Z,35.70
2018-05-24T07:54:34.725Z,36.00
2018-05-24T07:55:34.713Z,36.60
2018-05-24T07:56:34.701Z,36.80
2018-05-24T07:57:34.689Z,38.70
2018-05-24T07:58:34.683Z,36.00
2018-05-24T07:59:34.670Z,35.80
2018-05-24T08:00:34.658Z,36.00
2018-05-24T08:01:34.719Z,35.70
2018-05-24T08:02:34.632Z,35.60
2018-05-24T08:03:34.618Z,36.10
2018-05-24T08:04:34.609Z,34.40
2018-05-24T08:05:34.796Z,34.10
2018-05-24T08:06:34.589Z,33.80
2018-05-24T08:07:34.570Z,33.10
2018-05-24T08:08:34.633Z,33.00
2018-05-24T08:09:34.547Z,34.10
2018-05-24T08:10:34.535Z,33.90
2018-05-24T08:11:34.522Z,34.40
2018-05-24T08:12:34.512Z,34.70
2018-05-24T08:13:34.500Z,35.00
2018-05-24T08:14:34.487Z,34.10
2018-05-24T08:15:34.475Z,33.10
2018-05-24T08:16:34.462Z,34.40
2018-05-24T08:17:34.452Z,33.00
2018-05-24T08:18:34.438Z,33.40
2018-05-24T08:19:34.429Z,33.80
2018-05-24T08:20:34.414Z,32.00
2018-05-24T08:21:34.402Z,32.10
2018-05-24T08:22:34.445Z,33.50
2018-05-24T08:23:34.377Z,33.00
2018-05-24T08:24:34.365Z,32.60
2018-05-24T08:25:34.353Z,32.90
2018-05-24T08:26:34.341Z,31.80
2018-05-24T08:27:34.329Z,30.30
2018-05-24T08:28:34.331Z,30.40
2018-05-24T08:29:34.505Z,30.30
2018-05-24T08:30:34.297Z,29.20
2018-05-24T08:31:34.280Z,30.30
2018-05-24T08:32:34.271Z,29.80
2018-05-24T08:33:34.256Z,30.40
2018-05-24T08:34:34.253Z,31.20
2018-05-24T08:35:34.232Z,32.00
2018-05-24T08:36:34.220Z,30.80
2018-05-24T08:37:34.208Z,30.70
2018-05-24T08:38:34.197Z,30.10
2018-05-24T08:39:34.183Z,28.80
2018-05-24T08:40:34.247Z,29.50
2018-05-24T08:41:34.160Z,28.90
2018-05-24T08:42:34.147Z,28.50
2018-05-24T08:43:34.138Z,28.50
2018-05-24T08:44:34.122Z,29.00
2018-05-24T08:45:34.110Z,28.00
2018-05-24T08:46:34.178Z,29.40
2018-05-24T08:47:34.086Z,31.10
2018-05-24T08:48:34.078Z,29.90
2018-05-24T08:49:34.062Z,29.90
2018-05-24T08:50:34.051Z,30.60
2018-05-24T08:51:34.042Z,33.00
2018-05-24T08:52:34.026Z,32.50
2018-05-24T08:53:34.014Z,31.80
2018-05-24T08:54:34.003Z,30.00
2018-05-24T08:55:33.990Z,30.00
2018-05-24T08:56:33.981Z,29.10
2018-05-24T08:57:33.965Z,28.50
2018-05-24T08:58:33.954Z,27.30
2018-05-24T08:59:33.941Z,27.10
2018-05-24T09:00:33.930Z,27.00
2018-05-24T09:01:34.004Z,27.90
2018-05-24T09:02:33.906Z,26.40
2018-05-24T09:03:33.892Z,27.20
2018-05-24T09:04:33.882Z,28.90
2018-05-24T09:05:33.869Z,28.00
2018-05-24T09:06:33.861Z,26.10
2018-05-24T09:07:33.844Z,25.30
2018-05-24T09:08:33.832Z,25.80
2018-05-24T09:09:33.856Z,25.90
2018-05-24T09:10:33.809Z,26.10
2018-05-24T09:11:33.796Z,24.30
2018-05-24T09:12:33.785Z,23.90
2018-05-24T09:13:33.773Z,23.00
2018-05-24T09:14:33.761Z,22.90
2018-05-24T09:15:33.747Z,22.70
2018-05-24T09:16:33.735Z,23.20
2018-05-24T09:17:33.723Z,24.10
2018-05-24T09:18:33.711Z,23.50
2018-05-24T09:19:33.699Z,22.20
2018-05-24T09:20:33.686Z,22.40
2018-05-24T09:21:33.676Z,21.90
2018-05-24T09:22:33.663Z,23.10
2018-05-24T09:23:33.852Z,22.10
2018-05-24T09:24:33.638Z,21.70
2018-05-24T09:25:33.628Z,21.70
2018-05-24T09:26:33.615Z,21.60
2018-05-24T09:27:33.610Z,22.00
2018-05-24T09:28:33.590Z,21.90
2018-05-24T09:29:33.582Z,20.90
2018-05-24T09:30:33.570Z,22.40
2018-05-24T09:31:33.555Z,21.70
2018-05-24T09:32:33.543Z,21.80
2018-05-24T09:33:33.530Z,22.00
2018-05-24T09:34:33.520Z,23.10
2018-05-24T09:35:33.706Z,21.80
2018-05-24T09:36:33.492Z,21.70
2018-05-24T09:37:33.482Z,23.00
2018-05-24T09:38:33.471Z,23.60
2018-05-24T09:39:33.458Z,23.20
2018-05-24T09:40:33.444Z,23.60
2018-05-24T09:41:33.634Z,23.40
2018-05-24T09:42:33.425Z,22.50
2018-05-24T09:43:33.408Z,22.90
2018-05-24T09:44:33.397Z,23.20
2018-05-24T09:45:33.387Z,23.70
2018-05-24T09:46:33.372Z,24.70
2018-05-24T09:47:33.360Z,24.80
2018-05-24T09:48:33.348Z,24.30
2018-05-24T09:49:33.336Z,25.10
2018-05-24T09:50:33.323Z,23.70
2018-05-24T09:51:33.311Z,23.60
2018-05-24T09:52:33.298Z,23.70
2018-05-24T09:53:33.287Z,24.90
2018-05-24T09:54:33.276Z,24.30
2018-05-24T09:55:33.263Z,24.60
2018-05-24T09:56:33.251Z,24.50
2018-05-24T09:57:33.240Z,23.30
2018-05-24T09:58:33.228Z,25.70
2018-05-24T09:59:33.214Z,25.50
2018-05-24T10:00:33.202Z,24.20
2018-05-24T10:01:33.194Z,24.30
2018-05-24T10:02:33.184Z,25.00
2018-05-24T10:03:33.167Z,23.90
2018-05-24T10:04:33.228Z,24.60
2018-05-24T10:05:33.143Z,24.20
2018-05-24T10:06:33.130Z,25.40
2018-05-24T10:07:33.119Z,24.10
2018-05-24T10:08:33.105Z,23.40
2018-05-24T10:09:33.094Z,23.50
2018-05-24T10:10:33.139Z,25.10
2018-05-24T10:11:33.269Z,24.90
2018-05-24T10:12:33.058Z,25.50
2018-05-24T10:13:33.047Z,24.90
2018-05-24T10:14:33.034Z,25.20
2018-05-24T10:15:33.024Z,25.10
2018-05-24T10:16:33.087Z,24.60
2018-05-24T10:17:32.997Z,24.60
2018-05-24T10:18:32.986Z,23.60
2018-05-24T10:19:32.974Z,24.40
2018-05-24T10:20:32.963Z,25.10
2018-05-24T10:21:32.949Z,24.30
2018-05-24T10:22:33.007Z,23.40
2018-05-24T10:23:33.005Z,23.00
2018-05-24T10:24:32.912Z,22.00
2018-05-24T10:25:32.902Z,22.40
2018-05-24T10:26:32.889Z,23.00
2018-05-24T10:27:32.876Z,23.40
2018-05-24T10:28:32.867Z,23.90
2018-05-24T10:29:33.055Z,23.90
2018-05-24T10:30:32.841Z,25.00
2018-05-24T10:31:32.828Z,23.30
2018-05-24T10:32:32.816Z,23.80
2018-05-24T10:33:32.806Z,23.30
2018-05-24T10:34:32.795Z,24.30
2018-05-24T10:35:32.781Z,23.90
2018-05-24T10:36:32.769Z,24.20
2018-05-24T10:37:32.759Z,24.50
2018-05-24T10:38:32.761Z,25.00
2018-05-24T10:39:32.737Z,25.50
2018-05-24T10:40:32.724Z,25.20
2018-05-24T10:41:32.711Z,24.80
2018-05-24T10:42:32.699Z,27.10
2018-05-24T10:43:32.688Z,25.00
2018-05-24T10:44:32.676Z,26.20
2018-05-24T10:45:32.665Z,26.90
2018-05-24T10:46:32.652Z,26.60
2018-05-24T10:47:32.643Z,26.10
2018-05-24T10:48:32.630Z,24.70
2018-05-24T10:49:32.619Z,25.50
2018-05-24T10:50:32.605Z,26.70
2018-05-24T10:51:32.599Z,25.80
2018-05-24T10:52:32.582Z,25.40
2018-05-24T10:53:32.570Z,26.50
2018-05-24T10:54:32.559Z,27.30
2018-05-24T10:55:32.548Z,26.70
2018-05-24T10:56:32.537Z,26.60
2018-05-24T10:57:32.524Z,27.20
2018-05-24T10:58:32.514Z,27.10
2018-05-24T10:59:32.575Z,27.70
2018-05-24T11:00:32.489Z,28.90
2018-05-24T11:01:32.479Z,29.30
2018-05-24T11:02:32.469Z,28.70
2018-05-24T11:03:32.455Z,30.40
2018-05-24T11:04:32.449Z,29.60
2018-05-24T11:05:32.435Z,29.50
2018-05-24T11:06:32.422Z,29.00
2018-05-24T11:07:32.411Z,28.80
2018-05-24T11:08:32.402Z,30.40
2018-05-24T11:09:32.393Z,31.00
2018-05-24T11:10:32.378Z,29.30
2018-05-24T11:11:32.453Z,29.90
2018-05-24T11:12:32.353Z,29.50
2018-05-24T11:13:32.344Z,29.40
2018-05-24T11:14:32.332Z,29.80
2018-05-24T11:15:32.319Z,29.60
2018-05-24T11:16:32.313Z,29.40
2018-05-24T11:17:32.497Z,29.30
2018-05-24T11:18:32.288Z,30.30
2018-05-24T11:19:32.276Z,31.20
2018-05-24T11:20:32.265Z,29.80
2018-05-24T11:21:32.256Z,31.10
2018-05-24T11:22:32.246Z,30.90
2018-05-24T11:23:32.230Z,30.80
2018-05-24T11:24:32.219Z,29.60
2018-05-24T11:25:32.208Z,29.70
2018-05-24T11:26:32.197Z,29.40
2018-05-24T11:27:32.185Z,30.00
2018-05-24T11:28:32.174Z,30.30
2018-05-24T11:29:32.163Z,29.80
2018-05-24T11:30:32.152Z,29.50
2018-05-24T11:31:32.142Z,30.60
2018-05-24T11:32:32.129Z,29.70
2018-05-24T11:33:32.120Z,28.80
2018-05-24T11:34:32.112Z,28.60
2018-05-24T11:35:32.147Z,27.40
2018-05-24T11:36:32.087Z,26.90
2018-05-24T11:37:32.078Z,27.60
2018-05-24T11:38:32.067Z,25.50
2018-05-24T11:39:32.055Z,26.50
2018-05-24T11:40:32.047Z,27.20
2018-05-24T11:41:32.239Z,29.00
2018-05-24T11:42:32.025Z,26.80
2018-05-24T11:43:32.235Z,26.50
2018-05-24T11:44:32.005Z,26.20
2018-05-24T11:45:31.993Z,25.40
2018-05-24T11:46:32.133Z,26.10
2018-05-24T11:47:31.972Z,27.10
2018-05-24T11:48:31.963Z,25.20
2018-05-24T11:49:31.958Z,26.40
2018-05-24T11:50:31.944Z,26.00
2018-05-24T11:51:31.942Z,24.50
2018-05-24T11:52:31.925Z,22.70
2018-05-24T11:53:31.914Z,23.00
2018-05-24T11:54:31.906Z,24.00
2018-05-24T11:55:31.895Z,25.30
2018-05-24T11:56:31.887Z,26.10
2018-05-24T11:57:32.077Z,24.90
2018-05-24T11:58:31.872Z,24.30
2018-05-24T11:59:31.857Z,25.90
2018-05-24T12:00:31.849Z,25.00
2018-05-24T12:01:31.840Z,24.50
2018-05-24T12:02:31.830Z,25.60
2018-05-24T12:03:31.820Z,26.70
2018-05-24T12:04:31.812Z,26.60
2018-05-24T12:05:31.803Z,24.70
2018-05-24T12:06:31.795Z,25.70
2018-05-24T12:07:31.784Z,25.80
2018-05-24T12:08:31.776Z,24.90
2018-05-24T12:09:31.766Z,25.40
2018-05-24T12:10:31.759Z,25.20
2018-05-24T12:11:31.749Z,25.50
2018-05-24T12:12:31.740Z,25.30
2018-05-24T12:13:31.731Z,24.30
2018-05-24T12:14:31.722Z,24.10
2018-05-24T12:15:31.715Z,23.80
2018-05-24T12:16:31.704Z,25.10
2018-05-24T12:17:31.700Z,24.80
2018-05-24T12:18:31.693Z,25.30
2018-05-24T12:19:31.677Z,25.40
2018-05-24T12:20:31.669Z,25.50
2018-05-24T12:21:31.661Z,25.40
2018-05-24T12:22:31.652Z,25.90
2018-05-24T12:23:31.645Z,26.50
2018-05-24T12:24:31.715Z,23.70
2018-05-24T12:25:31.629Z,24.80
2018-05-24T12:26:31.618Z,26.20
2018-05-24T12:27:31.613Z,26.50
2018-05-24T12:28:31.601Z,24.90
2018-05-24T12:29:31.597Z,26.20
2018-05-24T12:30:31.584Z,26.40
2018-05-24T12:31:31.575Z,26.50
2018-05-24T12:32:31.568Z,26.90
2018-05-24T12:33:31.558Z,25.60
2018-05-24T12:34:31.551Z,25.90
2018-05-24T12:35:31.651Z,25.20
2018-05-24T12:36:31.532Z,24.80
2018-05-24T12:37:31.524Z,25.90
2018-05-24T12:38:31.518Z,25.30
2018-05-24T12:39:31.507Z,24.40
2018-05-24T12:40:31.501Z,25.10
2018-05-24T12:41:31.524Z,24.00
2018-05-24T12:42:31.481Z,25.80
2018-05-24T12:43:31.472Z,26.30
2018-05-24T12:44:31.464Z,27.00
2018-05-24T12:45:31.455Z,26.70
2018-05-24T12:46:31.450Z,25.70
2018-05-24T12:47:31.439Z,26.70
2018-05-24T12:48:31.432Z,27.50
2018-05-24T12:49:31.422Z,25.80
2018-05-24T12:50:31.412Z,26.40
2018-05-24T12:51:31.403Z,27.30
2018-05-24T12:52:31.393Z,26.00